CheckWX is a tool to help pilots better visualize weather data.  It is not intended as a substitute for an official pre-flight weather briefing.

20:31:01 UTC

KSQL METAR
San Carlos Airport
San Carlos, California, USA
Current

37 mins ago

KSQL 181954Z 34008KT 10SM SKC 10/M03 A3025
Observed
Feb-18 @ 19:54 UTC
Wind
  • 340° at 8 KTS
Visibility
10 SM
Flight Rules
VFR
Cloud Levels
  • Clear skies
Temperature
10°C / 50°F
Dewpoint
-3°C / 27°F
Humidity
40%
Altimeter
30.25" Hg
Pressure
1024.42 hPa
Previous

3 hours ago

KSQL 181747Z 34004KT SKC 09/M01 A3025
Observed
Feb-18 @ 17:47 UTC
Wind
  • 340° at 4 KTS
Visibility
Cloud Levels
  • Clear skies
Temperature
C / 48°F
Dewpoint
-1°C / 30°F
Humidity
50%
Altimeter
30.25" Hg
Pressure
1024.42 hPa
Previous

4 hours ago

KSQL 181655Z 00000KT SKC 07/02 A3024
Observed
Feb-18 @ 16:55 UTC
Visibility
Cloud Levels
  • Clear skies
Temperature
C / 45°F
Dewpoint
C / 36°F
Humidity
71%
Altimeter
30.24" Hg
Pressure
1024.02 hPa